createdAt,value
2023-10-19T00:01:01.356Z,7.93
2023-10-19T00:03:28.716Z,7.74
2023-10-19T00:05:57.813Z,7.98
2023-10-19T00:08:25.598Z,8.01
2023-10-19T00:11:04.459Z,8.00
2023-10-19T00:13:32.184Z,8.03
2023-10-19T00:16:00.012Z,6.45
2023-10-19T00:18:27.088Z,7.94
2023-10-19T00:21:28.953Z,7.84
2023-10-19T00:23:58.838Z,7.67
2023-10-19T00:26:28.317Z,7.32
2023-10-19T00:29:15.797Z,7.56
2023-10-19T00:31:43.069Z,7.35
2023-10-19T00:34:11.496Z,7.35
2023-10-19T00:36:40.563Z,7.55
2023-10-19T00:39:29.609Z,7.43
2023-10-19T00:41:58.974Z,7.55
2023-10-19T00:44:44.748Z,7.53
2023-10-19T00:47:14.840Z,7.01
2023-10-19T00:49:45.521Z,7.42
2023-10-19T00:52:13.071Z,5.78
2023-10-19T00:55:03.316Z,5.51
2023-10-19T00:57:35.521Z,7.21
2023-10-19T01:00:23.970Z,7.00
2023-10-19T01:02:52.882Z,7.32
2023-10-19T01:05:23.158Z,7.15
2023-10-19T01:08:01.763Z,7.07
2023-10-19T01:10:29.857Z,7.15
2023-10-19T01:13:00.677Z,6.90
2023-10-19T01:15:30.626Z,6.93
2023-10-19T01:18:00.040Z,6.39
2023-10-19T01:20:29.841Z,6.43
2023-10-19T01:23:18.900Z,6.74
2023-10-19T01:25:56.688Z,6.85
2023-10-19T01:28:47.647Z,6.54
2023-10-19T01:31:24.385Z,6.59
2023-10-19T01:33:51.941Z,6.72
2023-10-19T01:36:24.831Z,6.17
2023-10-19T01:38:56.890Z,6.49
2023-10-19T01:41:27.814Z,6.81
2023-10-19T01:43:55.736Z,6.83
2023-10-19T01:46:26.544Z,6.69
2023-10-19T01:48:56.961Z,6.76
2023-10-19T01:51:31.696Z,6.31
2023-10-19T01:54:00.042Z,6.72
2023-10-19T01:56:27.147Z,6.67
2023-10-19T01:58:56.180Z,6.79
2023-10-19T02:01:29.848Z,6.83
2023-10-19T02:04:01.202Z,6.45
2023-10-19T02:06:38.413Z,6.74
2023-10-19T02:09:18.846Z,6.75
2023-10-19T02:11:48.406Z,6.26
2023-10-19T02:14:20.255Z,6.73
2023-10-19T02:16:53.777Z,6.63
2023-10-19T02:19:22.931Z,6.08
2023-10-19T02:21:53.747Z,6.54
2023-10-19T02:24:21.653Z,6.60
2023-10-19T02:26:55.113Z,6.68
2023-10-19T02:29:27.377Z,5.92
2023-10-19T02:31:57.694Z,4.94
2023-10-19T02:34:25.794Z,5.97
2023-10-19T02:36:53.107Z,6.57
2023-10-19T02:39:26.912Z,6.01
2023-10-19T02:41:55.787Z,6.52
2023-10-19T02:44:24.202Z,5.43
2023-10-19T02:46:54.169Z,6.61
2023-10-19T02:49:24.072Z,6.56
2023-10-19T02:51:53.444Z,6.26
2023-10-19T02:54:26.387Z,6.03
2023-10-19T02:57:00.262Z,6.33
2023-10-19T02:59:33.510Z,6.45
2023-10-19T03:02:23.286Z,6.34
2023-10-19T03:04:51.618Z,6.30
2023-10-19T03:07:19.841Z,6.42
2023-10-19T03:09:56.062Z,6.26
2023-10-19T03:12:28.201Z,6.25
2023-10-19T03:14:55.563Z,5.60
2023-10-19T03:17:23.375Z,6.29
2023-10-19T03:19:50.582Z,6.25
2023-10-19T03:22:18.931Z,6.25
2023-10-19T03:24:46.141Z,6.24
2023-10-19T03:27:24.445Z,6.00
2023-10-19T03:29:56.722Z,5.79
2023-10-19T03:32:28.995Z,5.68
2023-10-19T03:34:57.752Z,6.12
2023-10-19T03:37:27.300Z,6.14
2023-10-19T03:39:58.346Z,5.91
2023-10-19T03:42:40.916Z,5.84
2023-10-19T03:45:17.083Z,5.90
2023-10-19T03:47:50.900Z,5.93
2023-10-19T03:50:22.376Z,5.74
2023-10-19T03:52:49.756Z,5.87
2023-10-19T03:55:19.578Z,5.57
2023-10-19T03:57:56.210Z,5.77
2023-10-19T04:00:28.695Z,5.59
2023-10-19T04:02:57.054Z,5.73
2023-10-19T04:05:24.735Z,5.82
2023-10-19T04:07:56.492Z,5.84
2023-10-19T04:10:36.676Z,5.71
2023-10-19T04:13:04.367Z,5.80
2023-10-19T04:15:35.978Z,5.46
2023-10-19T04:18:10.486Z,6.01
2023-10-19T04:20:54.058Z,5.44
2023-10-19T04:23:36.327Z,5.27
2023-10-19T04:26:19.270Z,5.95
2023-10-19T04:28:46.561Z,5.91
2023-10-19T04:31:17.490Z,5.46
2023-10-19T04:33:47.302Z,5.91
2023-10-19T04:36:16.381Z,5.90
2023-10-19T04:38:45.391Z,5.96
2023-10-19T04:41:12.586Z,5.52
2023-10-19T04:43:41.232Z,6.06
2023-10-19T04:46:12.891Z,5.64
2023-10-19T04:48:43.757Z,5.99
2023-10-19T04:51:11.424Z,5.53
2023-10-19T04:53:39.696Z,5.76
2023-10-19T04:56:10.301Z,6.10
2023-10-19T04:58:39.833Z,5.62
2023-10-19T05:01:07.162Z,6.12
2023-10-19T05:03:34.762Z,6.08
2023-10-19T05:06:02.756Z,6.16
2023-10-19T05:08:30.995Z,6.01
2023-10-19T05:11:00.638Z,5.59
2023-10-19T05:13:28.904Z,6.09
2023-10-19T05:16:00.598Z,5.53
2023-10-19T05:18:28.104Z,5.72
2023-10-19T05:20:58.344Z,6.15
2023-10-19T05:23:26.829Z,6.20
2023-10-19T05:26:05.063Z,6.21
2023-10-19T05:28:32.877Z,5.96
2023-10-19T05:31:01.056Z,5.82
2023-10-19T05:33:31.440Z,6.09
2023-10-19T05:35:58.707Z,6.15
2023-10-19T05:38:25.904Z,5.94
2023-10-19T05:40:53.605Z,5.72
2023-10-19T05:43:20.922Z,5.78
2023-10-19T05:45:51.625Z,6.19
2023-10-19T05:48:19.336Z,5.62
2023-10-19T05:50:46.567Z,6.34
2023-10-19T05:53:15.190Z,6.19
2023-10-19T05:55:42.666Z,6.39
2023-10-19T05:58:09.840Z,6.29
2023-10-19T06:00:37.069Z,5.99
2023-10-19T06:03:06.011Z,6.27
2023-10-19T06:05:33.341Z,6.58
2023-10-19T06:08:01.377Z,6.40
2023-10-19T06:10:30.147Z,6.30
2023-10-19T06:12:58.895Z,6.09
2023-10-19T06:15:26.371Z,6.02
2023-10-19T06:17:54.201Z,6.56
2023-10-19T06:20:25.374Z,5.71
2023-10-19T06:22:54.957Z,6.33
2023-10-19T06:25:26.247Z,6.93
2023-10-19T06:27:54.493Z,6.85
2023-10-19T06:30:24.376Z,6.29
2023-10-19T06:32:53.835Z,6.51
2023-10-19T06:35:22.411Z,7.21
2023-10-19T06:37:49.997Z,6.88
2023-10-19T06:40:18.368Z,7.02
2023-10-19T06:42:48.995Z,6.77
2023-10-19T06:45:17.824Z,7.06
2023-10-19T06:47:46.819Z,6.75
2023-10-19T06:50:17.264Z,7.04
2023-10-19T06:52:46.237Z,7.71
2023-10-19T06:55:24.041Z,7.79
2023-10-19T06:57:56.842Z,7.66
2023-10-19T07:00:28.220Z,7.95
2023-10-19T07:02:58.241Z,7.33
2023-10-19T07:05:31.365Z,8.15
2023-10-19T07:08:03.417Z,8.31
2023-10-19T07:10:31.112Z,7.83
2023-10-19T07:12:59.408Z,8.21
2023-10-19T07:15:28.366Z,8.70
2023-10-19T07:17:55.959Z,8.50
2023-10-19T07:20:29.081Z,8.94
2023-10-19T07:22:57.598Z,8.27
2023-10-19T07:25:27.308Z,9.29
2023-10-19T07:27:54.891Z,9.38
2023-10-19T07:30:23.287Z,9.07
2023-10-19T07:33:00.332Z,8.96
2023-10-19T07:35:28.806Z,9.33
2023-10-19T07:37:58.325Z,9.93
2023-10-19T07:40:29.114Z,9.36
2023-10-19T07:42:56.558Z,9.95
2023-10-19T07:45:27.489Z,10.43
2023-10-19T07:47:55.228Z,10.61
2023-10-19T07:50:24.105Z,10.75
2023-10-19T07:52:53.247Z,10.76
2023-10-19T07:55:26.797Z,11.00
2023-10-19T07:57:55.464Z,10.90
2023-10-19T08:00:26.204Z,10.78
2023-10-19T08:02:55.345Z,10.86
2023-10-19T08:05:23.258Z,9.21
2023-10-19T08:07:50.482Z,11.64
2023-10-19T08:10:19.949Z,11.89
2023-10-19T08:12:48.844Z,12.00
2023-10-19T08:15:17.307Z,12.14
2023-10-19T08:17:46.469Z,12.33
2023-10-19T08:20:17.775Z,12.44
2023-10-19T08:22:48.089Z,12.09
2023-10-19T08:25:18.329Z,12.69
2023-10-19T08:27:46.980Z,12.88
2023-10-19T08:30:14.555Z,12.90
2023-10-19T08:32:43.070Z,13.19
2023-10-19T08:35:13.812Z,13.30
2023-10-19T08:37:41.508Z,13.34
2023-10-19T08:40:15.761Z,13.66
2023-10-19T08:42:43.919Z,13.78
2023-10-19T08:45:14.805Z,13.95
2023-10-19T08:48:00.970Z,14.04
2023-10-19T08:50:30.242Z,14.11
2023-10-19T08:53:05.913Z,14.18
2023-10-19T08:55:45.955Z,14.08
2023-10-19T08:58:18.142Z,14.16
2023-10-19T09:00:49.155Z,14.14
2023-10-19T09:03:18.570Z,14.50
2023-10-19T09:05:47.958Z,14.50
2023-10-19T09:08:17.822Z,14.38
2023-10-19T09:10:50.356Z,14.70
2023-10-19T09:13:20.902Z,14.86
2023-10-19T09:15:55.491Z,14.98
2023-10-19T09:18:25.199Z,15.09
2023-10-19T09:20:54.478Z,14.98
2023-10-19T09:23:22.350Z,15.37
2023-10-19T09:25:56.142Z,15.39
2023-10-19T09:28:25.426Z,15.43
2023-10-19T09:30:53.598Z,15.39
2023-10-19T09:33:23.353Z,15.50
2023-10-19T09:35:55.302Z,15.38
2023-10-19T09:38:27.233Z,15.36
2023-10-19T09:40:56.445Z,15.66
2023-10-19T09:43:34.845Z,15.67
2023-10-19T09:46:30.558Z,15.88
2023-10-19T09:48:58.012Z,15.64
2023-10-19T09:51:26.247Z,15.49
2023-10-19T09:54:10.753Z,16.22
2023-10-19T09:56:42.739Z,16.21
2023-10-19T09:59:20.707Z,16.29
2023-10-19T10:02:15.010Z,16.34
2023-10-19T10:04:44.898Z,16.38
2023-10-19T10:07:12.257Z,15.15
2023-10-19T10:09:45.863Z,16.48
2023-10-19T10:12:22.671Z,16.43
2023-10-19T10:15:17.784Z,15.99
2023-10-19T10:17:51.253Z,16.74
2023-10-19T10:20:21.296Z,16.77
2023-10-19T10:23:26.209Z,16.78
2023-10-19T10:25:55.342Z,16.56
2023-10-19T10:28:25.297Z,16.89
2023-10-19T10:31:16.051Z,16.72
2023-10-19T10:33:48.856Z,16.88
2023-10-19T10:36:18.348Z,17.26
2023-10-19T10:38:50.245Z,17.33
2023-10-19T10:41:26.391Z,17.21
2023-10-19T10:43:58.418Z,17.12
2023-10-19T10:46:33.501Z,17.13
2023-10-19T10:49:00.759Z,17.36
2023-10-19T10:51:32.520Z,16.98
2023-10-19T10:54:00.173Z,17.18
2023-10-19T10:56:27.470Z,16.71
2023-10-19T10:58:56.436Z,17.39
2023-10-19T11:01:36.526Z,16.98
2023-10-19T11:04:09.110Z,17.47
2023-10-19T11:06:50.484Z,17.15
2023-10-19T11:09:20.916Z,16.88
2023-10-19T11:11:48.187Z,17.24
2023-10-19T11:14:15.549Z,17.22
2023-10-19T11:16:44.745Z,17.50
2023-10-19T11:19:13.120Z,17.51
2023-10-19T11:21:56.025Z,17.38
2023-10-19T11:24:29.956Z,17.52
2023-10-19T11:26:57.112Z,17.42
2023-10-19T11:29:25.415Z,17.65
2023-10-19T11:32:01.158Z,17.62
2023-10-19T11:34:30.693Z,17.61
2023-10-19T11:37:01.183Z,17.48
2023-10-19T11:39:30.068Z,17.63
2023-10-19T11:41:57.380Z,17.46
2023-10-19T11:44:24.990Z,17.59
2023-10-19T11:46:56.311Z,17.89
2023-10-19T11:49:26.741Z,17.90
2023-10-19T11:51:54.306Z,17.86
2023-10-19T11:54:21.469Z,18.00
2023-10-19T11:56:50.353Z,18.02
2023-10-19T11:59:17.747Z,18.03
2023-10-19T12:01:45.603Z,18.04
2023-10-19T12:04:12.884Z,17.99
2023-10-19T12:06:40.097Z,17.99
2023-10-19T12:09:16.419Z,17.88
2023-10-19T12:11:45.141Z,17.70
2023-10-19T12:14:16.241Z,17.67
2023-10-19T12:16:43.526Z,17.88
2023-10-19T12:19:10.749Z,17.82
2023-10-19T12:21:42.439Z,17.61
2023-10-19T12:24:09.895Z,17.70
2023-10-19T12:26:37.349Z,17.85
2023-10-19T12:29:08.536Z,17.26
2023-10-19T12:31:35.833Z,17.50
2023-10-19T12:34:03.004Z,17.64
2023-10-19T12:36:30.318Z,17.77
2023-10-19T12:38:58.693Z,17.95
2023-10-19T12:41:26.476Z,17.97
2023-10-19T12:43:54.244Z,18.00
2023-10-19T12:46:25.690Z,18.17
2023-10-19T12:48:54.026Z,18.04
2023-10-19T12:51:30.026Z,18.25
2023-10-19T12:53:57.337Z,18.25
2023-10-19T12:56:30.709Z,18.35
2023-10-19T12:58:58.161Z,18.07
2023-10-19T13:01:25.530Z,18.19
2023-10-19T13:03:53.005Z,18.38
2023-10-19T13:06:21.066Z,18.41
2023-10-19T13:08:48.576Z,18.14
2023-10-19T13:11:19.086Z,18.63
2023-10-19T13:13:50.777Z,18.69
2023-10-19T13:16:18.229Z,18.74
2023-10-19T13:18:48.457Z,18.78
2023-10-19T13:21:23.343Z,17.99
2023-10-19T13:23:50.497Z,18.93
2023-10-19T13:26:17.798Z,18.94
2023-10-19T13:28:46.399Z,18.24
2023-10-19T13:31:17.248Z,18.63
2023-10-19T13:33:45.588Z,19.06
2023-10-19T13:36:14.425Z,18.80
2023-10-19T13:38:42.812Z,18.64
2023-10-19T13:41:12.938Z,19.14
2023-10-19T13:43:41.498Z,18.83
2023-10-19T13:46:08.742Z,19.18
2023-10-19T13:48:37.310Z,18.69
2023-10-19T13:51:14.373Z,18.95
2023-10-19T13:53:42.803Z,18.64
2023-10-19T13:56:11.095Z,18.53
2023-10-19T13:58:39.258Z,18.72
2023-10-19T14:01:11.383Z,18.69
2023-10-19T14:03:39.721Z,18.62
2023-10-19T14:06:13.569Z,18.03
2023-10-19T14:08:40.748Z,18.12
2023-10-19T14:11:08.761Z,18.27
2023-10-19T14:13:37.173Z,18.52
2023-10-19T14:16:09.516Z,18.38
2023-10-19T14:18:40.455Z,18.32
2023-10-19T14:21:18.373Z,18.16
2023-10-19T14:23:47.041Z,17.92
2023-10-19T14:26:15.375Z,17.97
2023-10-19T14:28:43.017Z,17.51
2023-10-19T14:31:10.556Z,17.49
2023-10-19T14:33:37.782Z,17.30
2023-10-19T14:36:05.950Z,17.55
2023-10-19T14:38:36.063Z,17.24
2023-10-19T14:41:03.310Z,16.93
2023-10-19T14:43:34.327Z,17.16
2023-10-19T14:46:02.998Z,17.02
2023-10-19T14:48:30.469Z,16.90
2023-10-19T14:50:58.832Z,16.89
2023-10-19T14:53:27.470Z,16.13
2023-10-19T14:55:58.481Z,16.44
2023-10-19T14:58:27.285Z,16.28
2023-10-19T15:00:58.373Z,16.21
2023-10-19T15:03:26.369Z,16.11
2023-10-19T15:05:57.197Z,16.30
2023-10-19T15:08:25.878Z,16.28
2023-10-19T15:10:56.428Z,16.14
2023-10-19T15:13:23.901Z,16.01
2023-10-19T15:15:51.326Z,15.71
2023-10-19T15:18:19.523Z,15.77
2023-10-19T15:20:47.789Z,14.68
2023-10-19T15:23:15.357Z,15.56
2023-10-19T15:25:42.710Z,15.67
2023-10-19T15:28:11.170Z,15.67
2023-10-19T15:30:38.877Z,15.11
2023-10-19T15:33:06.306Z,14.28
2023-10-19T15:35:36.152Z,15.36
2023-10-19T15:38:03.395Z,14.68
2023-10-19T15:40:30.560Z,14.70
2023-10-19T15:43:00.433Z,15.11
2023-10-19T15:45:29.382Z,14.92
2023-10-19T15:47:57.744Z,14.52
2023-10-19T15:50:24.970Z,14.90
2023-10-19T15:52:53.618Z,14.74
2023-10-19T15:55:23.578Z,14.93
2023-10-19T15:57:55.626Z,14.50
2023-10-19T16:00:24.023Z,14.19
2023-10-19T16:02:52.137Z,14.58
2023-10-19T16:05:19.619Z,14.48
2023-10-19T16:07:47.330Z,14.17
2023-10-19T16:10:15.296Z,14.31
2023-10-19T16:12:45.685Z,14.08
2023-10-19T16:15:16.116Z,14.26
2023-10-19T16:17:45.155Z,14.07
2023-10-19T16:20:16.491Z,14.08
2023-10-19T16:22:44.116Z,13.98
2023-10-19T16:25:12.478Z,14.47
2023-10-19T16:27:40.283Z,14.12
2023-10-19T16:30:14.080Z,13.75
2023-10-19T16:32:42.274Z,14.49
2023-10-19T16:35:10.707Z,14.46
2023-10-19T16:37:38.166Z,14.13
2023-10-19T16:40:08.764Z,14.21
2023-10-19T16:42:35.991Z,14.30
2023-10-19T16:45:04.957Z,13.50
2023-10-19T16:47:32.329Z,13.60
2023-10-19T16:50:00.524Z,13.91
2023-10-19T16:52:28.263Z,14.24
2023-10-19T16:54:55.418Z,14.21
2023-10-19T16:57:23.168Z,14.04
2023-10-19T16:59:51.555Z,14.07
2023-10-19T17:02:19.211Z,13.64
2023-10-19T17:04:50.020Z,13.67
2023-10-19T17:07:17.755Z,13.10
2023-10-19T17:09:46.429Z,13.23
2023-10-19T17:12:13.653Z,13.65
2023-10-19T17:14:43.207Z,13.62
2023-10-19T17:17:10.524Z,13.09
2023-10-19T17:19:37.813Z,13.26
2023-10-19T17:22:05.061Z,13.28
2023-10-19T17:24:32.500Z,13.36
2023-10-19T17:27:00.107Z,13.32
2023-10-19T17:29:27.650Z,13.08
2023-10-19T17:31:55.042Z,12.38
2023-10-19T17:34:22.160Z,12.30
2023-10-19T17:36:49.517Z,12.92
2023-10-19T17:39:17.918Z,13.13
2023-10-19T17:41:49.256Z,13.11
2023-10-19T17:44:17.092Z,13.07
2023-10-19T17:46:44.802Z,13.05
2023-10-19T17:49:12.368Z,13.05
2023-10-19T17:51:40.236Z,12.66
2023-10-19T17:54:10.906Z,12.93
2023-10-19T17:56:40.985Z,12.87
2023-10-19T17:59:09.186Z,12.17
2023-10-19T18:01:37.375Z,12.66
2023-10-19T18:04:06.793Z,12.62
2023-10-19T18:06:34.131Z,12.79
2023-10-19T18:09:01.695Z,12.81
2023-10-19T18:11:28.989Z,12.53
2023-10-19T18:13:56.503Z,11.94
2023-10-19T18:16:26.829Z,12.60
2023-10-19T18:18:54.282Z,12.07
2023-10-19T18:21:21.555Z,12.33
2023-10-19T18:23:48.915Z,12.61
2023-10-19T18:26:17.460Z,12.51
2023-10-19T18:28:53.357Z,12.16
2023-10-19T18:31:21.581Z,12.10
2023-10-19T18:33:48.982Z,12.24
2023-10-19T18:36:17.169Z,11.84
2023-10-19T18:38:44.355Z,12.33
2023-10-19T18:41:13.070Z,11.92
2023-10-19T18:43:40.694Z,12.13
2023-10-19T18:46:08.039Z,11.51
2023-10-19T18:48:35.814Z,11.69
2023-10-19T18:51:06.038Z,12.35
2023-10-19T18:53:36.783Z,12.25
2023-10-19T18:56:07.332Z,11.66
2023-10-19T18:58:37.834Z,12.22
2023-10-19T19:01:05.765Z,12.17
2023-10-19T19:03:35.192Z,12.10
2023-10-19T19:06:12.512Z,11.34
2023-10-19T19:08:42.017Z,12.09
2023-10-19T19:11:11.780Z,12.05
2023-10-19T19:13:41.684Z,12.09
2023-10-19T19:16:09.764Z,12.09
2023-10-19T19:18:40.299Z,12.00
2023-10-19T19:21:11.819Z,12.08
2023-10-19T19:23:40.809Z,11.59
2023-10-19T19:26:09.526Z,11.87
2023-10-19T19:28:40.448Z,12.10
2023-10-19T19:31:07.740Z,12.07
2023-10-19T19:33:35.077Z,11.41
2023-10-19T19:36:02.438Z,11.99
2023-10-19T19:38:29.988Z,12.04
2023-10-19T19:40:57.519Z,11.64
2023-10-19T19:43:24.849Z,11.83
2023-10-19T19:45:55.551Z,11.74
2023-10-19T19:48:32.842Z,11.94
2023-10-19T19:51:00.140Z,11.80
2023-10-19T19:53:27.487Z,11.44
2023-10-19T19:55:54.880Z,11.77
2023-10-19T19:58:22.094Z,11.91
2023-10-19T20:00:49.245Z,11.82
2023-10-19T20:03:16.489Z,11.90
2023-10-19T20:05:43.770Z,11.89
2023-10-19T20:08:13.001Z,11.93
2023-10-19T20:10:44.295Z,11.90
2023-10-19T20:13:17.209Z,11.68
2023-10-19T20:15:45.171Z,11.83
2023-10-19T20:18:12.535Z,11.84
2023-10-19T20:20:40.504Z,11.35
2023-10-19T20:23:09.203Z,11.89
2023-10-19T20:25:36.451Z,11.87
2023-10-19T20:28:06.253Z,11.94
2023-10-19T20:30:35.087Z,11.88
2023-10-19T20:33:02.384Z,11.79
2023-10-19T20:35:33.978Z,11.02
2023-10-19T20:38:01.380Z,11.33
2023-10-19T20:40:32.465Z,11.31
2023-10-19T20:43:00.297Z,11.31
2023-10-19T20:45:30.009Z,11.76
2023-10-19T20:47:57.633Z,11.45
2023-10-19T20:50:31.167Z,11.84
2023-10-19T20:52:59.662Z,11.66
2023-10-19T20:55:27.187Z,11.81
2023-10-19T20:57:55.409Z,11.62
2023-10-19T21:00:23.974Z,11.69
2023-10-19T21:02:51.792Z,11.48
2023-10-19T21:05:20.704Z,11.82
2023-10-19T21:07:48.925Z,11.61
2023-10-19T21:10:19.922Z,11.50
2023-10-19T21:12:48.014Z,11.37
2023-10-19T21:15:18.839Z,11.81
2023-10-19T21:17:57.149Z,11.85
2023-10-19T21:20:25.867Z,10.48
2023-10-19T21:22:54.453Z,10.90
2023-10-19T21:25:25.702Z,10.49
2023-10-19T21:27:54.686Z,11.80
2023-10-19T21:30:21.958Z,11.48
2023-10-19T21:32:49.275Z,11.81
2023-10-19T21:35:17.103Z,10.50
2023-10-19T21:37:47.848Z,11.70
2023-10-19T21:40:14.976Z,11.38
2023-10-19T21:42:47.909Z,11.21
2023-10-19T21:45:16.729Z,11.70
2023-10-19T21:47:44.758Z,11.31
2023-10-19T21:50:12.429Z,11.59
2023-10-19T21:52:40.010Z,11.47
2023-10-19T21:55:12.129Z,11.27
2023-10-19T21:57:39.802Z,11.34
2023-10-19T22:00:14.068Z,11.55
2023-10-19T22:02:52.029Z,11.53
2023-10-19T22:05:29.738Z,11.58
2023-10-19T22:07:57.741Z,11.54
2023-10-19T22:10:25.045Z,11.47
2023-10-19T22:12:55.401Z,11.57
2023-10-19T22:15:22.664Z,11.67
2023-10-19T22:17:50.191Z,11.38
2023-10-19T22:20:17.948Z,10.73
2023-10-19T22:22:46.348Z,11.43
2023-10-19T22:25:22.454Z,11.56
2023-10-19T22:27:53.613Z,11.54
2023-10-19T22:30:21.010Z,11.68
2023-10-19T22:32:48.266Z,11.32
2023-10-19T22:35:15.694Z,11.56
2023-10-19T22:37:43.041Z,10.72
2023-10-19T22:40:10.759Z,11.38
2023-10-19T22:42:39.702Z,11.45
2023-10-19T22:45:13.889Z,10.94
2023-10-19T22:47:42.552Z,10.97
2023-10-19T22:50:10.566Z,11.16
2023-10-19T22:52:38.927Z,11.48
2023-10-19T22:55:07.634Z,11.18
2023-10-19T22:57:34.893Z,11.16
2023-10-19T23:00:02.077Z,11.09
2023-10-19T23:02:29.381Z,11.53
2023-10-19T23:04:56.730Z,11.48
2023-10-19T23:07:23.906Z,11.20
2023-10-19T23:09:52.691Z,10.78
2023-10-19T23:12:19.871Z,10.49
2023-10-19T23:14:47.945Z,11.36
2023-10-19T23:17:23.708Z,10.71
2023-10-19T23:19:54.331Z,11.11
2023-10-19T23:22:21.853Z,10.92
2023-10-19T23:24:51.281Z,11.66
2023-10-19T23:27:18.984Z,10.93
2023-10-19T23:29:50.797Z,11.37
2023-10-19T23:32:19.366Z,11.51
2023-10-19T23:34:49.293Z,11.49
2023-10-19T23:37:16.726Z,10.83
2023-10-19T23:39:46.949Z,11.42
2023-10-19T23:42:18.640Z,11.47
2023-10-19T23:44:48.443Z,10.93
2023-10-19T23:47:15.755Z,11.49
2023-10-19T23:49:42.988Z,10.68
2023-10-19T23:52:12.807Z,11.29
2023-10-19T23:54:40.066Z,11.50
2023-10-19T23:57:07.197Z,11.54
2023-10-19T23:59:34.448Z,11.10
